sensor_id;sensor_type;location;lat;lon;timestamp;P1;durP1;ratioP1;P2;durP2;ratioP2
3297;SDS011;1661;53.572;10.174;2023-02-01T00:02:11;26.90;;;5.37;;
3297;SDS011;1661;53.572;10.174;2023-02-01T00:04:37;40.20;;;5.87;;
3297;SDS011;1661;53.572;10.174;2023-02-01T00:07:04;27.20;;;5.83;;
3297;SDS011;1661;53.572;10.174;2023-02-01T00:09:31;34.80;;;7.10;;
3297;SDS011;1661;53.572;10.174;2023-02-01T00:11:58;23.43;;;5.73;;
3297;SDS011;1661;53.572;10.174;2023-02-01T00:14:27;21.63;;;6.00;;
3297;SDS011;1661;53.572;10.174;2023-02-01T00:16:56;30.23;;;6.37;;
3297;SDS011;1661;53.572;10.174;2023-02-01T00:19:22;31.50;;;6.30;;
3297;SDS011;1661;53.572;10.174;2023-02-01T00:21:49;29.23;;;5.37;;
3297;SDS011;1661;53.572;10.174;2023-02-01T00:24:16;41.33;;;5.80;;
3297;SDS011;1661;53.572;10.174;2023-02-01T00:26:43;22.77;;;5.17;;
3297;SDS011;1661;53.572;10.174;2023-02-01T00:29:12;39.47;;;7.70;;
3297;SDS011;1661;53.572;10.174;2023-02-01T00:31:41;31.00;;;5.73;;
3297;SDS011;1661;53.572;10.174;2023-02-01T00:34:09;33.20;;;6.17;;
3297;SDS011;1661;53.572;10.174;2023-02-01T00:36:39;36.43;;;6.40;;
3297;SDS011;1661;53.572;10.174;2023-02-01T00:39:06;25.03;;;6.50;;
3297;SDS011;1661;53.572;10.174;2023-02-01T00:41:32;32.67;;;6.20;;
3297;SDS011;1661;53.572;10.174;2023-02-01T00:43:59;26.00;;;7.07;;
3297;SDS011;1661;53.572;10.174;2023-02-01T00:46:27;61.77;;;8.40;;
3297;SDS011;1661;53.572;10.174;2023-02-01T00:48:54;62.70;;;6.53;;
3297;SDS011;1661;53.572;10.174;2023-02-01T00:51:23;23.63;;;6.90;;
3297;SDS011;1661;53.572;10.174;2023-02-01T00:53:52;36.20;;;6.93;;
3297;SDS011;1661;53.572;10.174;2023-02-01T00:56:19;28.77;;;6.10;;
3297;SDS011;1661;53.572;10.174;2023-02-01T00:58:46;48.60;;;7.20;;
3297;SDS011;1661;53.572;10.174;2023-02-01T01:01:14;27.37;;;7.07;;
3297;SDS011;1661;53.572;10.174;2023-02-01T01:03:43;29.53;;;7.30;;
3297;SDS011;1661;53.572;10.174;2023-02-01T01:06:11;45.70;;;8.20;;
3297;SDS011;1661;53.572;10.174;2023-02-01T01:08:42;37.40;;;8.20;;
3297;SDS011;1661;53.572;10.174;2023-02-01T01:11:10;33.97;;;8.10;;
3297;SDS011;1661;53.572;10.174;2023-02-01T01:13:39;47.63;;;7.17;;
3297;SDS011;1661;53.572;10.174;2023-02-01T01:16:07;28.97;;;6.83;;
3297;SDS011;1661;53.572;10.174;2023-02-01T01:18:35;39.43;;;6.80;;
3297;SDS011;1661;53.572;10.174;2023-02-01T01:21:03;31.37;;;7.50;;
3297;SDS011;1661;53.572;10.174;2023-02-01T01:23:31;28.07;;;7.07;;
3297;SDS011;1661;53.572;10.174;2023-02-01T01:25:59;37.70;;;8.40;;
3297;SDS011;1661;53.572;10.174;2023-02-01T01:28:26;29.50;;;7.10;;
3297;SDS011;1661;53.572;10.174;2023-02-01T01:30:52;38.57;;;9.90;;
3297;SDS011;1661;53.572;10.174;2023-02-01T01:33:19;33.87;;;8.83;;
3297;SDS011;1661;53.572;10.174;2023-02-01T01:35:46;39.43;;;7.53;;
3297;SDS011;1661;53.572;10.174;2023-02-01T01:38:13;44.07;;;7.10;;
3297;SDS011;1661;53.572;10.174;2023-02-01T01:40:39;41.00;;;8.10;;
3297;SDS011;1661;53.572;10.174;2023-02-01T01:43:13;32.13;;;6.77;;
3297;SDS011;1661;53.572;10.174;2023-02-01T01:45:41;36.53;;;8.03;;
3297;SDS011;1661;53.572;10.174;2023-02-01T01:48:09;38.93;;;7.57;;
3297;SDS011;1661;53.572;10.174;2023-02-01T01:50:40;47.80;;;8.20;;
3297;SDS011;1661;53.572;10.174;2023-02-01T01:53:13;54.20;;;9.07;;
3297;SDS011;1661;53.572;10.174;2023-02-01T01:55:44;36.70;;;7.83;;
3297;SDS011;1661;53.572;10.174;2023-02-01T01:58:15;42.37;;;9.73;;
3297;SDS011;1661;53.572;10.174;2023-02-01T02:00:44;45.00;;;8.73;;
3297;SDS011;1661;53.572;10.174;2023-02-01T02:03:13;41.43;;;10.50;;
3297;SDS011;1661;53.572;10.174;2023-02-01T02:05:44;50.87;;;9.97;;
3297;SDS011;1661;53.572;10.174;2023-02-01T02:08:13;46.30;;;11.70;;
3297;SDS011;1661;53.572;10.174;2023-02-01T02:10:40;31.87;;;6.67;;
3297;SDS011;1661;53.572;10.174;2023-02-01T02:13:27;27.03;;;7.70;;
3297;SDS011;1661;53.572;10.174;2023-02-01T02:16:00;36.77;;;8.47;;
3297;SDS011;1661;53.572;10.174;2023-02-01T02:18:35;56.83;;;8.10;;
3297;SDS011;1661;53.572;10.174;2023-02-01T02:21:10;46.63;;;10.93;;
3297;SDS011;1661;53.572;10.174;2023-02-01T02:23:47;32.00;;;8.60;;
3297;SDS011;1661;53.572;10.174;2023-02-01T02:26:40;34.87;;;8.43;;
3297;SDS011;1661;53.572;10.174;2023-02-01T02:32:39;48.80;;;7.07;;
3297;SDS011;1661;53.572;10.174;2023-02-01T02:35:41;43.53;;;9.33;;
3297;SDS011;1661;53.572;10.174;2023-02-01T02:38:13;45.57;;;8.80;;
3297;SDS011;1661;53.572;10.174;2023-02-01T02:40:47;47.47;;;7.80;;
3297;SDS011;1661;53.572;10.174;2023-02-01T02:43:20;34.37;;;6.50;;
3297;SDS011;1661;53.572;10.174;2023-02-01T02:46:09;37.13;;;6.97;;
3297;SDS011;1661;53.572;10.174;2023-02-01T02:49:03;46.27;;;8.20;;
3297;SDS011;1661;53.572;10.174;2023-02-01T02:51:34;37.70;;;6.70;;
3297;SDS011;1661;53.572;10.174;2023-02-01T02:54:25;41.07;;;8.13;;
3297;SDS011;1661;53.572;10.174;2023-02-01T02:57:12;41.80;;;7.23;;
3297;SDS011;1661;53.572;10.174;2023-02-01T03:00:00;40.67;;;7.33;;
3297;SDS011;1661;53.572;10.174;2023-02-01T03:02:48;46.93;;;7.80;;
3297;SDS011;1661;53.572;10.174;2023-02-01T03:05:34;49.60;;;8.60;;
3297;SDS011;1661;53.572;10.174;2023-02-01T03:08:04;54.90;;;9.10;;
3297;SDS011;1661;53.572;10.174;2023-02-01T03:10:39;57.67;;;8.93;;
3297;SDS011;1661;53.572;10.174;2023-02-01T03:13:12;34.13;;;6.60;;
3297;SDS011;1661;53.572;10.174;2023-02-01T03:15:43;26.37;;;6.37;;
3297;SDS011;1661;53.572;10.174;2023-02-01T03:18:19;34.30;;;7.30;;
3297;SDS011;1661;53.572;10.174;2023-02-01T03:20:53;35.10;;;9.37;;
3297;SDS011;1661;53.572;10.174;2023-02-01T03:23:22;31.73;;;7.80;;
3297;SDS011;1661;53.572;10.174;2023-02-01T03:25:52;35.77;;;7.47;;
3297;SDS011;1661;53.572;10.174;2023-02-01T03:28:21;35.60;;;7.13;;
3297;SDS011;1661;53.572;10.174;2023-02-01T03:30:51;34.63;;;6.47;;
3297;SDS011;1661;53.572;10.174;2023-02-01T03:33:20;53.40;;;8.37;;
3297;SDS011;1661;53.572;10.174;2023-02-01T03:35:50;36.60;;;7.20;;
3297;SDS011;1661;53.572;10.174;2023-02-01T03:38:25;50.70;;;6.47;;
3297;SDS011;1661;53.572;10.174;2023-02-01T03:40:58;28.03;;;6.80;;
3297;SDS011;1661;53.572;10.174;2023-02-01T03:43:38;30.13;;;5.90;;
3297;SDS011;1661;53.572;10.174;2023-02-01T03:46:15;19.57;;;5.30;;
3297;SDS011;1661;53.572;10.174;2023-02-01T03:48:46;22.60;;;5.03;;
3297;SDS011;1661;53.572;10.174;2023-02-01T03:51:16;17.70;;;3.53;;
3297;SDS011;1661;53.572;10.174;2023-02-01T03:53:45;26.90;;;5.70;;
3297;SDS011;1661;53.572;10.174;2023-02-01T03:56:14;16.07;;;4.63;;
3297;SDS011;1661;53.572;10.174;2023-02-01T03:58:44;23.10;;;5.70;;
3297;SDS011;1661;53.572;10.174;2023-02-01T04:01:24;19.93;;;4.70;;
3297;SDS011;1661;53.572;10.174;2023-02-01T04:03:52;27.77;;;5.03;;
3297;SDS011;1661;53.572;10.174;2023-02-01T04:06:20;27.93;;;4.63;;
3297;SDS011;1661;53.572;10.174;2023-02-01T04:08:47;20.10;;;5.27;;
3297;SDS011;1661;53.572;10.174;2023-02-01T04:11:14;14.87;;;4.90;;
3297;SDS011;1661;53.572;10.174;2023-02-01T04:13:41;20.60;;;5.63;;
3297;SDS011;1661;53.572;10.174;2023-02-01T04:16:07;25.33;;;5.97;;
3297;SDS011;1661;53.572;10.174;2023-02-01T04:18:34;17.03;;;4.63;;
3297;SDS011;1661;53.572;10.174;2023-02-01T04:21:01;23.63;;;6.00;;
3297;SDS011;1661;53.572;10.174;2023-02-01T04:23:30;18.73;;;5.13;;
3297;SDS011;1661;53.572;10.174;2023-02-01T04:26:00;22.93;;;4.83;;
3297;SDS011;1661;53.572;10.174;2023-02-01T04:28:27;27.27;;;5.00;;
3297;SDS011;1661;53.572;10.174;2023-02-01T04:30:54;26.93;;;5.83;;
3297;SDS011;1661;53.572;10.174;2023-02-01T04:33:21;18.17;;;5.13;;
3297;SDS011;1661;53.572;10.174;2023-02-01T04:35:48;34.60;;;5.90;;
3297;SDS011;1661;53.572;10.174;2023-02-01T04:38:16;29.47;;;5.47;;
3297;SDS011;1661;53.572;10.174;2023-02-01T04:40:46;24.03;;;5.60;;
3297;SDS011;1661;53.572;10.174;2023-02-01T04:43:13;29.07;;;5.63;;
3297;SDS011;1661;53.572;10.174;2023-02-01T04:45:40;23.57;;;6.40;;
3297;SDS011;1661;53.572;10.174;2023-02-01T04:48:06;15.27;;;5.63;;
3297;SDS011;1661;53.572;10.174;2023-02-01T04:50:33;16.33;;;4.60;;
3297;SDS011;1661;53.572;10.174;2023-02-01T04:53:00;22.77;;;5.63;;
3297;SDS011;1661;53.572;10.174;2023-02-01T04:55:27;15.60;;;4.00;;
3297;SDS011;1661;53.572;10.174;2023-02-01T04:57:55;16.50;;;5.47;;
3297;SDS011;1661;53.572;10.174;2023-02-01T05:00:22;17.90;;;4.30;;
3297;SDS011;1661;53.572;10.174;2023-02-01T05:02:49;23.80;;;5.37;;
3297;SDS011;1661;53.572;10.174;2023-02-01T05:05:16;24.53;;;4.80;;
3297;SDS011;1661;53.572;10.174;2023-02-01T05:07:43;17.67;;;3.87;;
3297;SDS011;1661;53.572;10.174;2023-02-01T05:10:11;15.00;;;3.90;;
3297;SDS011;1661;53.572;10.174;2023-02-01T05:12:38;20.60;;;5.50;;
3297;SDS011;1661;53.572;10.174;2023-02-01T05:15:23;23.17;;;3.43;;
3297;SDS011;1661;53.572;10.174;2023-02-01T05:17:50;7.17;;;3.17;;
3297;SDS011;1661;53.572;10.174;2023-02-01T05:20:17;18.60;;;2.87;;
3297;SDS011;1661;53.572;10.174;2023-02-01T05:22:44;7.23;;;2.80;;
3297;SDS011;1661;53.572;10.174;2023-02-01T05:25:11;5.80;;;2.10;;
3297;SDS011;1661;53.572;10.174;2023-02-01T05:27:37;4.80;;;2.07;;
3297;SDS011;1661;53.572;10.174;2023-02-01T05:30:07;5.33;;;2.50;;
3297;SDS011;1661;53.572;10.174;2023-02-01T05:32:36;3.00;;;1.50;;
3297;SDS011;1661;53.572;10.174;2023-02-01T05:35:03;2.13;;;1.33;;
3297;SDS011;1661;53.572;10.174;2023-02-01T05:37:30;2.20;;;1.23;;
3297;SDS011;1661;53.572;10.174;2023-02-01T05:39:57;5.90;;;1.40;;
3297;SDS011;1661;53.572;10.174;2023-02-01T05:42:24;2.43;;;1.00;;
3297;SDS011;1661;53.572;10.174;2023-02-01T05:44:50;3.23;;;1.60;;
3297;SDS011;1661;53.572;10.174;2023-02-01T05:47:17;7.23;;;1.20;;
3297;SDS011;1661;53.572;10.174;2023-02-01T05:49:47;5.80;;;1.63;;
3297;SDS011;1661;53.572;10.174;2023-02-01T05:52:14;3.63;;;1.93;;
3297;SDS011;1661;53.572;10.174;2023-02-01T05:54:44;2.30;;;1.37;;
3297;SDS011;1661;53.572;10.174;2023-02-01T05:57:10;7.00;;;2.00;;
3297;SDS011;1661;53.572;10.174;2023-02-01T05:59:38;3.63;;;1.73;;
3297;SDS011;1661;53.572;10.174;2023-02-01T06:02:09;8.80;;;1.83;;
3297;SDS011;1661;53.572;10.174;2023-02-01T06:04:36;2.80;;;1.03;;
3297;SDS011;1661;53.572;10.174;2023-02-01T06:07:05;4.80;;;2.00;;
3297;SDS011;1661;53.572;10.174;2023-02-01T06:09:32;1.77;;;1.67;;
3297;SDS011;1661;53.572;10.174;2023-02-01T06:11:59;3.23;;;1.43;;
3297;SDS011;1661;53.572;10.174;2023-02-01T06:14:26;1.40;;;1.10;;
3297;SDS011;1661;53.572;10.174;2023-02-01T06:16:53;1.57;;;1.10;;
3297;SDS011;1661;53.572;10.174;2023-02-01T06:19:20;2.40;;;1.60;;
3297;SDS011;1661;53.572;10.174;2023-02-01T06:21:47;4.30;;;2.80;;
3297;SDS011;1661;53.572;10.174;2023-02-01T06:24:16;4.97;;;2.00;;
3297;SDS011;1661;53.572;10.174;2023-02-01T06:26:43;3.27;;;1.10;;
3297;SDS011;1661;53.572;10.174;2023-02-01T06:29:10;3.17;;;1.27;;
3297;SDS011;1661;53.572;10.174;2023-02-01T06:31:37;3.53;;;2.20;;
3297;SDS011;1661;53.572;10.174;2023-02-01T06:34:04;4.80;;;1.57;;
3297;SDS011;1661;53.572;10.174;2023-02-01T06:36:31;5.03;;;1.63;;
3297;SDS011;1661;53.572;10.174;2023-02-01T06:38:58;8.23;;;2.00;;
3297;SDS011;1661;53.572;10.174;2023-02-01T06:41:26;3.80;;;2.67;;
3297;SDS011;1661;53.572;10.174;2023-02-01T06:43:53;4.50;;;2.23;;
3297;SDS011;1661;53.572;10.174;2023-02-01T06:46:20;10.60;;;2.40;;
3297;SDS011;1661;53.572;10.174;2023-02-01T06:48:46;4.23;;;2.90;;
3297;SDS011;1661;53.572;10.174;2023-02-01T06:51:21;10.03;;;2.43;;
3297;SDS011;1661;53.572;10.174;2023-02-01T06:53:48;8.53;;;3.27;;
3297;SDS011;1661;53.572;10.174;2023-02-01T06:56:15;13.33;;;2.10;;
3297;SDS011;1661;53.572;10.174;2023-02-01T06:58:44;6.77;;;3.37;;
3297;SDS011;1661;53.572;10.174;2023-02-01T07:01:11;8.40;;;2.87;;
3297;SDS011;1661;53.572;10.174;2023-02-01T07:03:38;20.30;;;4.80;;
3297;SDS011;1661;53.572;10.174;2023-02-01T07:06:06;12.67;;;4.07;;
3297;SDS011;1661;53.572;10.174;2023-02-01T07:08:34;15.03;;;5.53;;
3297;SDS011;1661;53.572;10.174;2023-02-01T07:11:03;17.90;;;3.67;;
3297;SDS011;1661;53.572;10.174;2023-02-01T07:13:31;12.60;;;3.23;;
3297;SDS011;1661;53.572;10.174;2023-02-01T07:16:00;24.07;;;4.17;;
3297;SDS011;1661;53.572;10.174;2023-02-01T07:18:28;11.93;;;3.70;;
3297;SDS011;1661;53.572;10.174;2023-02-01T07:20:55;22.27;;;3.93;;
3297;SDS011;1661;53.572;10.174;2023-02-01T07:23:24;13.33;;;5.10;;
3297;SDS011;1661;53.572;10.174;2023-02-01T07:25:55;12.47;;;3.40;;
3297;SDS011;1661;53.572;10.174;2023-02-01T07:28:23;31.27;;;5.70;;
3297;SDS011;1661;53.572;10.174;2023-02-01T07:30:50;18.93;;;4.27;;
3297;SDS011;1661;53.572;10.174;2023-02-01T07:33:19;24.37;;;5.27;;
3297;SDS011;1661;53.572;10.174;2023-02-01T07:35:47;18.43;;;3.90;;
3297;SDS011;1661;53.572;10.174;2023-02-01T07:38:15;19.60;;;4.70;;
3297;SDS011;1661;53.572;10.174;2023-02-01T07:40:42;29.17;;;5.00;;
3297;SDS011;1661;53.572;10.174;2023-02-01T07:43:09;26.87;;;5.10;;
3297;SDS011;1661;53.572;10.174;2023-02-01T07:45:36;21.03;;;4.90;;
3297;SDS011;1661;53.572;10.174;2023-02-01T07:48:03;28.33;;;5.13;;
3297;SDS011;1661;53.572;10.174;2023-02-01T07:50:31;30.97;;;4.90;;
3297;SDS011;1661;53.572;10.174;2023-02-01T07:52:59;23.30;;;5.40;;
3297;SDS011;1661;53.572;10.174;2023-02-01T07:55:26;18.10;;;3.30;;
3297;SDS011;1661;53.572;10.174;2023-02-01T07:57:56;30.63;;;5.90;;
3297;SDS011;1661;53.572;10.174;2023-02-01T08:00:23;17.90;;;3.87;;
3297;SDS011;1661;53.572;10.174;2023-02-01T08:03:07;14.20;;;4.50;;
3297;SDS011;1661;53.572;10.174;2023-02-01T08:05:37;30.07;;;6.60;;
3297;SDS011;1661;53.572;10.174;2023-02-01T08:08:03;30.33;;;6.50;;
3297;SDS011;1661;53.572;10.174;2023-02-01T08:10:31;12.80;;;5.07;;
3297;SDS011;1661;53.572;10.174;2023-02-01T08:12:58;50.63;;;7.77;;
3297;SDS011;1661;53.572;10.174;2023-02-01T08:15:25;32.33;;;6.40;;
3297;SDS011;1661;53.572;10.174;2023-02-01T08:17:52;26.17;;;6.50;;
3297;SDS011;1661;53.572;10.174;2023-02-01T08:20:20;31.07;;;8.67;;
3297;SDS011;1661;53.572;10.174;2023-02-01T08:22:49;35.53;;;8.90;;
3297;SDS011;1661;53.572;10.174;2023-02-01T08:25:16;40.03;;;7.30;;
3297;SDS011;1661;53.572;10.174;2023-02-01T08:27:43;30.37;;;6.27;;
3297;SDS011;1661;53.572;10.174;2023-02-01T08:30:11;35.90;;;8.30;;
3297;SDS011;1661;53.572;10.174;2023-02-01T08:32:39;45.77;;;8.30;;
3297;SDS011;1661;53.572;10.174;2023-02-01T08:35:06;48.77;;;6.73;;
3297;SDS011;1661;53.572;10.174;2023-02-01T08:37:33;38.23;;;7.70;;
3297;SDS011;1661;53.572;10.174;2023-02-01T08:40:01;30.00;;;7.27;;
3297;SDS011;1661;53.572;10.174;2023-02-01T08:42:28;33.57;;;6.90;;
3297;SDS011;1661;53.572;10.174;2023-02-01T08:45:12;44.83;;;7.63;;
3297;SDS011;1661;53.572;10.174;2023-02-01T08:47:39;40.40;;;7.50;;
3297;SDS011;1661;53.572;10.174;2023-02-01T08:50:07;25.27;;;7.07;;
3297;SDS011;1661;53.572;10.174;2023-02-01T08:52:35;34.97;;;6.97;;
3297;SDS011;1661;53.572;10.174;2023-02-01T08:55:03;25.13;;;4.67;;
3297;SDS011;1661;53.572;10.174;2023-02-01T08:57:31;19.30;;;4.17;;
3297;SDS011;1661;53.572;10.174;2023-02-01T08:59:58;27.60;;;4.67;;
3297;SDS011;1661;53.572;10.174;2023-02-01T09:02:25;18.07;;;4.13;;
3297;SDS011;1661;53.572;10.174;2023-02-01T09:04:52;15.60;;;3.73;;
3297;SDS011;1661;53.572;10.174;2023-02-01T09:07:19;30.10;;;4.87;;
3297;SDS011;1661;53.572;10.174;2023-02-01T09:09:46;21.30;;;6.30;;
3297;SDS011;1661;53.572;10.174;2023-02-01T09:12:14;17.43;;;5.03;;
3297;SDS011;1661;53.572;10.174;2023-02-01T09:14:41;34.03;;;7.80;;
3297;SDS011;1661;53.572;10.174;2023-02-01T09:17:08;21.87;;;5.80;;
3297;SDS011;1661;53.572;10.174;2023-02-01T09:19:35;26.70;;;6.33;;
3297;SDS011;1661;53.572;10.174;2023-02-01T09:22:01;23.77;;;6.17;;
3297;SDS011;1661;53.572;10.174;2023-02-01T09:24:28;37.23;;;7.00;;
3297;SDS011;1661;53.572;10.174;2023-02-01T09:26:56;43.37;;;8.57;;
3297;SDS011;1661;53.572;10.174;2023-02-01T09:29:25;39.57;;;7.23;;
3297;SDS011;1661;53.572;10.174;2023-02-01T09:31:51;39.40;;;6.63;;
3297;SDS011;1661;53.572;10.174;2023-02-01T09:34:18;31.90;;;5.33;;
3297;SDS011;1661;53.572;10.174;2023-02-01T09:36:45;40.30;;;8.33;;
3297;SDS011;1661;53.572;10.174;2023-02-01T09:39:12;19.23;;;5.03;;
3297;SDS011;1661;53.572;10.174;2023-02-01T09:41:42;19.77;;;5.67;;
3297;SDS011;1661;53.572;10.174;2023-02-01T09:44:21;22.43;;;5.37;;
3297;SDS011;1661;53.572;10.174;2023-02-01T09:47:00;27.40;;;6.47;;
3297;SDS011;1661;53.572;10.174;2023-02-01T09:49:28;47.00;;;7.77;;
3297;SDS011;1661;53.572;10.174;2023-02-01T09:51:59;28.53;;;6.53;;
3297;SDS011;1661;53.572;10.174;2023-02-01T09:54:33;23.37;;;6.90;;
3297;SDS011;1661;53.572;10.174;2023-02-01T09:57:07;32.33;;;6.60;;
3297;SDS011;1661;53.572;10.174;2023-02-01T09:59:41;20.57;;;5.27;;
3297;SDS011;1661;53.572;10.174;2023-02-01T10:02:11;23.77;;;7.20;;
3297;SDS011;1661;53.572;10.174;2023-02-01T10:04:41;23.57;;;6.20;;
3297;SDS011;1661;53.572;10.174;2023-02-01T10:07:10;24.43;;;6.27;;
3297;SDS011;1661;53.572;10.174;2023-02-01T10:09:58;36.10;;;6.67;;
3297;SDS011;1661;53.572;10.174;2023-02-01T10:12:41;20.87;;;5.40;;
3297;SDS011;1661;53.572;10.174;2023-02-01T10:15:30;32.17;;;5.60;;
3297;SDS011;1661;53.572;10.174;2023-02-01T10:18:33;32.60;;;6.23;;
3297;SDS011;1661;53.572;10.174;2023-02-01T10:21:06;29.50;;;6.27;;
3297;SDS011;1661;53.572;10.174;2023-02-01T10:26:39;27.00;;;6.30;;
3297;SDS011;1661;53.572;10.174;2023-02-01T10:29:12;20.57;;;5.40;;
3297;SDS011;1661;53.572;10.174;2023-02-01T10:31:44;27.07;;;4.90;;
3297;SDS011;1661;53.572;10.174;2023-02-01T10:34:14;13.37;;;3.60;;
3297;SDS011;1661;53.572;10.174;2023-02-01T10:36:49;32.90;;;5.77;;
3297;SDS011;1661;53.572;10.174;2023-02-01T10:39:21;31.33;;;5.13;;
3297;SDS011;1661;53.572;10.174;2023-02-01T10:41:49;22.83;;;5.90;;
3297;SDS011;1661;53.572;10.174;2023-02-01T10:44:16;19.17;;;5.10;;
3297;SDS011;1661;53.572;10.174;2023-02-01T10:46:49;25.40;;;5.70;;
3297;SDS011;1661;53.572;10.174;2023-02-01T10:49:17;25.00;;;5.27;;
3297;SDS011;1661;53.572;10.174;2023-02-01T10:51:49;16.77;;;4.97;;
3297;SDS011;1661;53.572;10.174;2023-02-01T10:54:21;36.77;;;6.07;;
3297;SDS011;1661;53.572;10.174;2023-02-01T10:56:58;27.97;;;6.07;;
3297;SDS011;1661;53.572;10.174;2023-02-01T10:59:25;20.13;;;5.90;;
3297;SDS011;1661;53.572;10.174;2023-02-01T11:01:58;16.03;;;4.10;;
3297;SDS011;1661;53.572;10.174;2023-02-01T11:04:26;22.53;;;6.10;;
3297;SDS011;1661;53.572;10.174;2023-02-01T11:07:05;26.10;;;5.47;;
3297;SDS011;1661;53.572;10.174;2023-02-01T11:09:35;21.40;;;5.93;;
3297;SDS011;1661;53.572;10.174;2023-02-01T11:12:20;31.40;;;5.60;;
3297;SDS011;1661;53.572;10.174;2023-02-01T11:14:51;11.33;;;4.83;;
3297;SDS011;1661;53.572;10.174;2023-02-01T11:17:32;30.17;;;7.53;;
3297;SDS011;1661;53.572;10.174;2023-02-01T11:20:02;21.40;;;5.83;;
3297;SDS011;1661;53.572;10.174;2023-02-01T11:22:30;29.70;;;7.20;;
3297;SDS011;1661;53.572;10.174;2023-02-01T11:24:57;12.00;;;5.10;;
3297;SDS011;1661;53.572;10.174;2023-02-01T11:27:27;28.93;;;6.53;;
3297;SDS011;1661;53.572;10.174;2023-02-01T11:29:55;14.03;;;5.23;;
3297;SDS011;1661;53.572;10.174;2023-02-01T11:32:25;21.57;;;4.50;;
3297;SDS011;1661;53.572;10.174;2023-02-01T11:34:56;29.80;;;5.70;;
3297;SDS011;1661;53.572;10.174;2023-02-01T11:37:26;26.13;;;5.20;;
3297;SDS011;1661;53.572;10.174;2023-02-01T11:39:56;21.70;;;5.70;;
3297;SDS011;1661;53.572;10.174;2023-02-01T11:42:25;34.27;;;7.47;;
3297;SDS011;1661;53.572;10.174;2023-02-01T11:45:13;36.53;;;7.40;;
3297;SDS011;1661;53.572;10.174;2023-02-01T11:47:44;38.03;;;6.57;;
3297;SDS011;1661;53.572;10.174;2023-02-01T11:50:14;38.77;;;6.13;;
3297;SDS011;1661;53.572;10.174;2023-02-01T11:52:52;33.53;;;5.47;;
3297;SDS011;1661;53.572;10.174;2023-02-01T11:58:22;32.13;;;5.40;;
3297;SDS011;1661;53.572;10.174;2023-02-01T12:01:10;35.10;;;5.50;;
3297;SDS011;1661;53.572;10.174;2023-02-01T12:06:56;30.47;;;5.50;;
3297;SDS011;1661;53.572;10.174;2023-02-01T12:09:34;21.90;;;5.20;;
3297;SDS011;1661;53.572;10.174;2023-02-01T12:12:16;23.73;;;4.90;;
3297;SDS011;1661;53.572;10.174;2023-02-01T12:14:52;18.83;;;3.33;;
3297;SDS011;1661;53.572;10.174;2023-02-01T12:17:42;16.97;;;3.43;;
3297;SDS011;1661;53.572;10.174;2023-02-01T12:20:35;15.00;;;3.30;;
3297;SDS011;1661;53.572;10.174;2023-02-01T12:23:27;16.00;;;4.13;;
3297;SDS011;1661;53.572;10.174;2023-02-01T12:26:26;14.07;;;3.97;;
3297;SDS011;1661;53.572;10.174;2023-02-01T12:29:09;16.57;;;6.00;;
3297;SDS011;1661;53.572;10.174;2023-02-01T12:31:59;17.87;;;3.50;;
3297;SDS011;1661;53.572;10.174;2023-02-01T12:34:44;18.87;;;4.90;;
3297;SDS011;1661;53.572;10.174;2023-02-01T12:37:24;21.80;;;3.50;;
3297;SDS011;1661;53.572;10.174;2023-02-01T12:40:25;11.07;;;3.73;;
3297;SDS011;1661;53.572;10.174;2023-02-01T12:43:03;12.80;;;3.53;;
3297;SDS011;1661;53.572;10.174;2023-02-01T12:45:39;8.83;;;3.10;;
3297;SDS011;1661;53.572;10.174;2023-02-01T12:48:16;11.53;;;3.13;;
3297;SDS011;1661;53.572;10.174;2023-02-01T12:50:53;13.10;;;2.80;;
3297;SDS011;1661;53.572;10.174;2023-02-01T12:53:25;4.63;;;2.47;;
3297;SDS011;1661;53.572;10.174;2023-02-01T12:55:58;6.50;;;3.10;;
3297;SDS011;1661;53.572;10.174;2023-02-01T12:58:33;9.10;;;3.00;;
3297;SDS011;1661;53.572;10.174;2023-02-01T13:01:06;7.30;;;2.70;;
3297;SDS011;1661;53.572;10.174;2023-02-01T13:03:38;5.57;;;1.77;;
3297;SDS011;1661;53.572;10.174;2023-02-01T13:06:10;4.13;;;1.33;;
3297;SDS011;1661;53.572;10.174;2023-02-01T13:08:43;2.53;;;1.60;;
3297;SDS011;1661;53.572;10.174;2023-02-01T13:11:16;10.27;;;2.50;;
3297;SDS011;1661;53.572;10.174;2023-02-01T13:13:52;5.73;;;1.57;;
3297;SDS011;1661;53.572;10.174;2023-02-01T13:16:25;5.23;;;1.90;;
3297;SDS011;1661;53.572;10.174;2023-02-01T13:18:59;3.33;;;1.63;;
3297;SDS011;1661;53.572;10.174;2023-02-01T13:21:31;7.33;;;2.13;;
3297;SDS011;1661;53.572;10.174;2023-02-01T13:24:01;3.70;;;1.27;;
3297;SDS011;1661;53.572;10.174;2023-02-01T13:26:31;3.53;;;1.43;;
3297;SDS011;1661;53.572;10.174;2023-02-01T13:28:58;4.00;;;1.37;;
3297;SDS011;1661;53.572;10.174;2023-02-01T13:34:29;3.23;;;1.60;;
3297;SDS011;1661;53.572;10.174;2023-02-01T13:37:12;2.83;;;1.27;;
3297;SDS011;1661;53.572;10.174;2023-02-01T13:39:53;9.00;;;1.70;;
3297;SDS011;1661;53.572;10.174;2023-02-01T13:42:43;3.70;;;1.63;;
3297;SDS011;1661;53.572;10.174;2023-02-01T13:45:15;5.20;;;2.00;;
3297;SDS011;1661;53.572;10.174;2023-02-01T13:47:44;11.43;;;1.60;;
3297;SDS011;1661;53.572;10.174;2023-02-01T13:50:19;2.40;;;1.20;;
3297;SDS011;1661;53.572;10.174;2023-02-01T13:52:51;2.27;;;2.07;;
3297;SDS011;1661;53.572;10.174;2023-02-01T13:55:28;3.77;;;1.50;;
3297;SDS011;1661;53.572;10.174;2023-02-01T13:58:10;5.00;;;1.27;;
3297;SDS011;1661;53.572;10.174;2023-02-01T14:00:43;4.83;;;1.47;;
3297;SDS011;1661;53.572;10.174;2023-02-01T14:03:11;4.83;;;1.70;;
3297;SDS011;1661;53.572;10.174;2023-02-01T14:05:55;4.30;;;1.73;;
3297;SDS011;1661;53.572;10.174;2023-02-01T14:08:41;11.10;;;1.67;;
3297;SDS011;1661;53.572;10.174;2023-02-01T14:11:31;3.83;;;1.67;;
3297;SDS011;1661;53.572;10.174;2023-02-01T14:23:21;2.90;;;1.40;;
3297;SDS011;1661;53.572;10.174;2023-02-01T14:28:43;3.83;;;0.97;;
3297;SDS011;1661;53.572;10.174;2023-02-01T14:31:14;6.27;;;1.73;;
3297;SDS011;1661;53.572;10.174;2023-02-01T14:34:02;6.10;;;3.73;;
3297;SDS011;1661;53.572;10.174;2023-02-01T14:36:40;7.50;;;1.50;;
3297;SDS011;1661;53.572;10.174;2023-02-01T14:39:23;3.30;;;1.33;;
3297;SDS011;1661;53.572;10.174;2023-02-01T14:42:14;4.07;;;1.63;;
3297;SDS011;1661;53.572;10.174;2023-02-01T14:44:47;8.23;;;2.20;;
3297;SDS011;1661;53.572;10.174;2023-02-01T14:50:03;7.73;;;1.90;;
3297;SDS011;1661;53.572;10.174;2023-02-01T14:52:50;4.00;;;2.37;;
3297;SDS011;1661;53.572;10.174;2023-02-01T14:55:29;4.57;;;1.80;;
3297;SDS011;1661;53.572;10.174;2023-02-01T14:58:01;5.40;;;1.73;;
3297;SDS011;1661;53.572;10.174;2023-02-01T15:00:31;4.53;;;1.70;;
3297;SDS011;1661;53.572;10.174;2023-02-01T15:03:12;4.30;;;2.00;;
3297;SDS011;1661;53.572;10.174;2023-02-01T15:05:55;6.93;;;2.70;;
3297;SDS011;1661;53.572;10.174;2023-02-01T15:08:24;12.97;;;3.57;;
3297;SDS011;1661;53.572;10.174;2023-02-01T15:10:53;13.23;;;3.50;;
3297;SDS011;1661;53.572;10.174;2023-02-01T15:13:22;9.87;;;3.20;;
3297;SDS011;1661;53.572;10.174;2023-02-01T15:15:59;13.97;;;2.87;;
3297;SDS011;1661;53.572;10.174;2023-02-01T15:18:28;13.90;;;4.00;;
3297;SDS011;1661;53.572;10.174;2023-02-01T15:21:00;8.20;;;3.30;;
3297;SDS011;1661;53.572;10.174;2023-02-01T15:23:28;8.97;;;3.57;;
3297;SDS011;1661;53.572;10.174;2023-02-01T15:25:55;18.47;;;5.77;;
3297;SDS011;1661;53.572;10.174;2023-02-01T15:28:24;24.80;;;3.10;;
3297;SDS011;1661;53.572;10.174;2023-02-01T15:30:52;18.67;;;3.80;;
3297;SDS011;1661;53.572;10.174;2023-02-01T15:33:23;24.20;;;4.00;;
3297;SDS011;1661;53.572;10.174;2023-02-01T15:35:51;33.00;;;7.07;;
3297;SDS011;1661;53.572;10.174;2023-02-01T15:38:42;11.67;;;4.07;;
3297;SDS011;1661;53.572;10.174;2023-02-01T15:41:11;18.10;;;3.43;;
3297;SDS011;1661;53.572;10.174;2023-02-01T15:43:41;17.50;;;4.27;;
3297;SDS011;1661;53.572;10.174;2023-02-01T15:46:10;18.10;;;3.83;;
3297;SDS011;1661;53.572;10.174;2023-02-01T15:48:42;21.07;;;4.93;;